createdAt,value
2022-08-29T00:00:18.238Z,16.23
2022-08-29T00:02:48.469Z,16.15
2022-08-29T00:05:18.810Z,16.20
2022-08-29T00:07:47.299Z,16.23
2022-08-29T00:10:16.268Z,16.24
2022-08-29T00:12:45.199Z,16.26
2022-08-29T00:15:14.383Z,16.12
2022-08-29T00:17:42.754Z,16.05
2022-08-29T00:20:13.504Z,16.19
2022-08-29T00:22:43.426Z,16.12
2022-08-29T00:25:14.035Z,15.99
2022-08-29T00:27:42.489Z,16.05
2022-08-29T00:30:17.827Z,16.01
2022-08-29T00:32:46.207Z,16.01
2022-08-29T00:35:16.884Z,15.98
2022-08-29T00:37:47.187Z,15.91
2022-08-29T00:40:19.302Z,15.87
2022-08-29T00:42:47.864Z,15.90
2022-08-29T00:45:18.192Z,15.89
2022-08-29T00:47:50.233Z,15.96
2022-08-29T00:50:27.012Z,15.94
2022-08-29T00:52:58.402Z,15.85
2022-08-29T00:55:31.581Z,15.75
2022-08-29T00:58:05.107Z,15.70
2022-08-29T01:00:34.444Z,15.78
2022-08-29T01:03:02.927Z,15.91
2022-08-29T01:05:31.041Z,15.91
2022-08-29T01:08:01.110Z,15.87
2022-08-29T01:10:47.038Z,15.80
2022-08-29T01:13:15.724Z,15.74
2022-08-29T01:15:46.616Z,15.80
2022-08-29T01:18:17.339Z,15.77
2022-08-29T01:20:57.736Z,15.65
2022-08-29T01:23:33.992Z,15.65
2022-08-29T01:26:05.034Z,15.70
2022-08-29T01:28:37.960Z,15.75
2022-08-29T01:31:09.372Z,15.82
2022-08-29T01:33:44.124Z,15.67
2022-08-29T01:36:15.534Z,15.61
2022-08-29T01:38:43.841Z,15.65
2022-08-29T01:41:14.167Z,15.68
2022-08-29T01:43:48.799Z,15.71
2022-08-29T01:46:23.369Z,15.73
2022-08-29T01:48:52.314Z,15.83
2022-08-29T01:51:20.973Z,15.73
2022-08-29T01:53:49.824Z,15.75
2022-08-29T01:56:24.415Z,15.63
2022-08-29T01:58:56.861Z,15.63
2022-08-29T02:01:27.828Z,15.55
2022-08-29T02:03:56.135Z,15.68
2022-08-29T02:06:24.316Z,15.68
2022-08-29T02:08:52.657Z,15.79
2022-08-29T02:11:23.298Z,15.58
2022-08-29T02:13:55.513Z,15.48
2022-08-29T02:16:24.665Z,15.53
2022-08-29T02:18:53.186Z,15.58
2022-08-29T02:21:25.680Z,15.52
2022-08-29T02:23:57.680Z,15.43
2022-08-29T02:26:28.024Z,15.47
2022-08-29T02:28:57.524Z,15.52
2022-08-29T02:31:26.675Z,15.49
2022-08-29T02:33:55.617Z,15.48
2022-08-29T02:36:24.747Z,15.46
2022-08-29T02:38:54.385Z,15.45
2022-08-29T02:41:22.764Z,15.27
2022-08-29T02:43:52.232Z,15.31
2022-08-29T02:46:21.314Z,15.16
2022-08-29T02:48:54.109Z,15.21
2022-08-29T02:51:31.875Z,15.13
2022-08-29T02:54:01.031Z,15.08
2022-08-29T02:56:29.456Z,15.10
2022-08-29T02:58:59.936Z,14.99
2022-08-29T03:01:29.012Z,15.06
2022-08-29T03:03:57.132Z,14.94
2022-08-29T03:06:25.398Z,14.92
2022-08-29T03:08:54.211Z,14.97
2022-08-29T03:11:23.400Z,14.83
2022-08-29T03:13:51.923Z,14.91
2022-08-29T03:16:28.060Z,14.86
2022-08-29T03:18:56.932Z,14.77
2022-08-29T03:21:27.279Z,14.82
2022-08-29T03:23:57.183Z,14.81
2022-08-29T03:26:25.803Z,14.81
2022-08-29T03:28:54.276Z,14.93
2022-08-29T03:31:22.921Z,14.89
2022-08-29T03:33:52.614Z,14.81
2022-08-29T03:36:20.701Z,14.73
2022-08-29T03:38:49.663Z,14.81
2022-08-29T03:41:22.366Z,14.76
2022-08-29T03:43:50.602Z,14.66
2022-08-29T03:46:18.994Z,14.59
2022-08-29T03:48:47.164Z,14.68
2022-08-29T03:51:17.326Z,14.66
2022-08-29T03:53:46.003Z,14.68
2022-08-29T03:56:18.602Z,14.68
2022-08-29T03:58:52.556Z,14.72
2022-08-29T04:01:22.904Z,14.67
2022-08-29T04:03:51.780Z,14.72
2022-08-29T04:06:22.548Z,14.74
2022-08-29T04:08:51.754Z,14.79
2022-08-29T04:11:22.124Z,14.79
2022-08-29T04:13:50.223Z,14.92
2022-08-29T04:16:20.907Z,14.90
2022-08-29T04:18:49.313Z,14.86
2022-08-29T04:21:18.708Z,14.81
2022-08-29T04:23:48.334Z,14.61
2022-08-29T04:29:06.738Z,14.80
2022-08-29T04:31:35.320Z,14.86
2022-08-29T04:34:03.494Z,14.77
2022-08-29T04:36:31.683Z,14.77
2022-08-29T04:39:01.410Z,14.59
2022-08-29T04:41:29.623Z,14.70
2022-08-29T04:43:57.768Z,14.76
2022-08-29T04:46:26.111Z,14.72
2022-08-29T04:48:55.330Z,14.61
2022-08-29T04:51:24.473Z,14.63
2022-08-29T04:53:53.765Z,14.54
2022-08-29T04:56:23.922Z,14.49
2022-08-29T04:58:52.230Z,14.50
2022-08-29T05:01:23.017Z,14.53
2022-08-29T05:03:53.540Z,14.51
2022-08-29T05:06:23.656Z,14.45
2022-08-29T05:08:58.816Z,14.48
2022-08-29T05:11:31.507Z,14.38
2022-08-29T05:14:01.120Z,14.39
2022-08-29T05:16:31.067Z,14.14
2022-08-29T05:19:00.790Z,14.39
2022-08-29T05:21:35.285Z,14.50
2022-08-29T05:24:05.634Z,14.51
2022-08-29T05:26:37.813Z,14.48
2022-08-29T05:29:08.827Z,14.50
2022-08-29T05:31:38.012Z,14.53
2022-08-29T05:34:11.210Z,14.52
2022-08-29T05:36:55.178Z,14.52
2022-08-29T05:39:23.255Z,14.59
2022-08-29T05:41:55.956Z,14.64
2022-08-29T05:44:24.272Z,14.67
2022-08-29T05:46:52.410Z,14.70
2022-08-29T05:49:21.099Z,14.72
2022-08-29T05:51:49.506Z,14.78
2022-08-29T05:54:17.676Z,14.84
2022-08-29T05:56:46.345Z,14.87
2022-08-29T05:59:17.813Z,14.87
2022-08-29T06:01:47.415Z,14.92
2022-08-29T06:04:15.674Z,14.99
2022-08-29T06:06:44.046Z,14.89
2022-08-29T06:09:13.451Z,14.96
2022-08-29T06:11:41.788Z,14.95
2022-08-29T06:14:10.000Z,15.04
2022-08-29T06:16:39.725Z,15.13
2022-08-29T06:19:08.007Z,15.22
2022-08-29T06:21:38.604Z,15.27
2022-08-29T06:24:07.856Z,15.36
2022-08-29T06:26:36.694Z,15.43
2022-08-29T06:29:07.046Z,15.28
2022-08-29T06:31:35.614Z,15.16
2022-08-29T06:34:10.045Z,15.29
2022-08-29T06:36:39.185Z,15.37
2022-08-29T06:39:10.423Z,15.40
2022-08-29T06:41:40.474Z,15.46
2022-08-29T06:44:09.491Z,15.45
2022-08-29T06:46:39.924Z,15.60
2022-08-29T06:49:13.666Z,15.62
2022-08-29T06:51:44.527Z,15.67
2022-08-29T06:54:14.259Z,15.59
2022-08-29T06:56:42.659Z,15.80
2022-08-29T06:59:11.081Z,15.58
2022-08-29T07:01:41.080Z,15.78
2022-08-29T07:04:14.864Z,15.77
2022-08-29T07:06:45.328Z,15.86
2022-08-29T07:09:14.723Z,15.95
2022-08-29T07:11:44.042Z,15.97
2022-08-29T07:14:13.310Z,16.02
2022-08-29T07:16:42.252Z,16.01
2022-08-29T07:19:11.566Z,16.03
2022-08-29T07:21:41.296Z,16.10
2022-08-29T07:24:09.877Z,16.10
2022-08-29T07:26:42.645Z,16.20
2022-08-29T07:29:13.200Z,16.28
2022-08-29T07:31:41.661Z,16.35
2022-08-29T07:34:10.322Z,16.34
2022-08-29T07:36:38.578Z,16.25
2022-08-29T07:39:13.054Z,16.34
2022-08-29T07:41:43.476Z,16.47
2022-08-29T07:44:12.348Z,16.47
2022-08-29T07:46:40.880Z,16.53
2022-08-29T07:49:09.849Z,16.62
2022-08-29T07:51:38.083Z,16.64
2022-08-29T07:54:17.058Z,16.70
2022-08-29T07:56:45.301Z,16.79
2022-08-29T07:59:14.514Z,16.77
2022-08-29T08:01:43.036Z,16.75
2022-08-29T08:04:11.721Z,16.79
2022-08-29T08:06:42.068Z,16.79
2022-08-29T08:09:12.142Z,16.94
2022-08-29T08:11:41.930Z,17.02
2022-08-29T08:14:11.206Z,17.12
2022-08-29T08:16:44.328Z,17.04
2022-08-29T08:19:13.594Z,17.08
2022-08-29T08:21:49.411Z,17.03
2022-08-29T08:24:19.826Z,17.17
2022-08-29T08:26:49.749Z,17.80
2022-08-29T08:29:18.027Z,18.41
2022-08-29T08:31:47.539Z,18.74
2022-08-29T08:34:15.904Z,18.81
2022-08-29T08:36:45.918Z,19.04
2022-08-29T08:39:15.343Z,19.32
2022-08-29T08:41:53.796Z,19.75
2022-08-29T08:44:48.836Z,19.21
2022-08-29T08:47:23.591Z,19.27
2022-08-29T08:49:56.651Z,19.34
2022-08-29T08:52:29.440Z,19.32
2022-08-29T08:55:03.068Z,19.46
2022-08-29T08:57:41.041Z,19.53
2022-08-29T09:00:11.766Z,19.50
2022-08-29T09:02:58.926Z,19.37
2022-08-29T09:05:39.831Z,19.55
2022-08-29T09:08:18.244Z,19.20
2022-08-29T09:10:58.944Z,19.21
2022-08-29T09:13:38.854Z,19.37
2022-08-29T09:16:14.468Z,19.17
2022-08-29T09:18:52.810Z,19.12
2022-08-29T09:21:41.758Z,19.03
2022-08-29T09:24:17.325Z,19.18
2022-08-29T09:26:45.551Z,19.32
2022-08-29T09:29:21.312Z,19.08
2022-08-29T09:32:10.192Z,18.86
2022-08-29T09:35:06.927Z,18.98
2022-08-29T09:37:35.054Z,19.22
2022-08-29T09:40:10.204Z,19.25
2022-08-29T09:42:41.724Z,19.33
2022-08-29T09:45:25.317Z,19.38
2022-08-29T09:48:10.124Z,19.50
2022-08-29T09:50:38.577Z,19.68
2022-08-29T09:53:10.056Z,19.54
2022-08-29T09:55:53.838Z,19.47
2022-08-29T09:58:31.110Z,19.46
2022-08-29T10:01:04.426Z,19.25
2022-08-29T10:03:39.665Z,19.34
2022-08-29T10:06:16.955Z,19.23
2022-08-29T10:08:58.035Z,19.33
2022-08-29T10:11:31.171Z,19.29
2022-08-29T10:14:03.501Z,19.33
2022-08-29T10:16:41.717Z,19.42
2022-08-29T10:19:14.264Z,19.25
2022-08-29T10:21:51.227Z,19.31
2022-08-29T10:24:39.029Z,19.42
2022-08-29T10:27:17.633Z,19.29
2022-08-29T10:30:03.104Z,19.41
2022-08-29T10:32:46.481Z,19.53
2022-08-29T10:35:20.773Z,19.33
2022-08-29T10:37:57.745Z,19.30
2022-08-29T10:40:31.591Z,19.16
2022-08-29T10:43:26.262Z,19.11
2022-08-29T10:46:06.062Z,19.11
2022-08-29T10:48:39.313Z,19.03
2022-08-29T10:51:20.499Z,19.12
2022-08-29T10:53:53.960Z,19.22
2022-08-29T10:56:28.739Z,19.31
2022-08-29T10:59:09.142Z,19.22
2022-08-29T11:01:43.391Z,19.16
2022-08-29T11:04:20.296Z,18.98
2022-08-29T11:06:56.713Z,18.84
2022-08-29T11:09:32.601Z,19.11
2022-08-29T11:12:12.506Z,19.02
2022-08-29T11:14:50.336Z,19.07
2022-08-29T11:17:20.482Z,19.06
2022-08-29T11:19:59.237Z,19.15
2022-08-29T11:22:32.723Z,19.09
2022-08-29T11:25:09.617Z,18.99
2022-08-29T11:27:49.261Z,19.05
2022-08-29T11:30:24.978Z,19.10
2022-08-29T11:33:06.476Z,19.11
2022-08-29T11:35:46.626Z,19.24
2022-08-29T11:39:00.559Z,19.12
2022-08-29T11:41:31.093Z,18.98
2022-08-29T11:44:10.689Z,19.31
2022-08-29T11:46:43.179Z,19.33
2022-08-29T11:49:25.487Z,19.31
2022-08-29T11:51:56.833Z,19.37
2022-08-29T11:54:54.956Z,19.42
2022-08-29T11:57:47.130Z,19.31
2022-08-29T12:00:41.239Z,19.19
2022-08-29T12:03:55.044Z,19.35
2022-08-29T12:06:26.163Z,19.30
2022-08-29T12:09:05.206Z,19.25
2022-08-29T12:12:08.851Z,19.41
2022-08-29T12:14:39.223Z,19.56
2022-08-29T12:17:10.571Z,19.60
2022-08-29T12:19:54.288Z,19.66
2022-08-29T12:22:59.516Z,19.52
2022-08-29T12:25:46.013Z,19.62
2022-08-29T12:28:37.477Z,19.59
2022-08-29T12:31:11.373Z,19.69
2022-08-29T12:33:50.635Z,19.75
2022-08-29T12:36:33.642Z,19.77
2022-08-29T12:39:24.664Z,19.77
2022-08-29T12:42:25.880Z,19.79
2022-08-29T12:45:01.217Z,19.84
2022-08-29T12:47:34.725Z,19.88
2022-08-29T12:50:08.207Z,19.94
2022-08-29T12:52:39.185Z,19.94
2022-08-29T12:55:23.070Z,19.94
2022-08-29T12:57:59.354Z,19.89
2022-08-29T13:00:31.262Z,19.88
2022-08-29T13:03:04.039Z,19.83
2022-08-29T13:05:34.887Z,20.04
2022-08-29T13:08:11.031Z,20.19
2022-08-29T13:10:53.480Z,19.94
2022-08-29T13:13:25.275Z,19.88
2022-08-29T13:15:55.389Z,20.03
2022-08-29T13:18:24.500Z,19.96
2022-08-29T13:21:12.271Z,20.02
2022-08-29T13:23:46.194Z,20.17
2022-08-29T13:26:23.673Z,20.15
2022-08-29T13:28:55.502Z,20.03
2022-08-29T13:31:27.862Z,20.17
2022-08-29T13:34:21.135Z,20.06
2022-08-29T13:37:01.827Z,20.09
2022-08-29T13:39:44.081Z,20.13
2022-08-29T13:42:26.453Z,20.07
2022-08-29T13:45:11.092Z,19.99
2022-08-29T13:48:12.102Z,20.00
2022-08-29T13:50:41.007Z,20.09
2022-08-29T13:53:09.453Z,20.09
2022-08-29T13:55:38.054Z,20.04
2022-08-29T13:58:06.387Z,20.03
2022-08-29T14:00:35.985Z,20.11
2022-08-29T14:03:09.620Z,20.07
2022-08-29T14:05:38.676Z,20.19
2022-08-29T14:08:10.296Z,20.20
2022-08-29T14:10:42.147Z,20.23
2022-08-29T14:13:10.252Z,20.32
2022-08-29T14:15:40.772Z,20.14
2022-08-29T14:18:10.569Z,20.18
2022-08-29T14:20:39.154Z,20.10
2022-08-29T14:23:07.760Z,20.20
2022-08-29T14:25:35.951Z,20.19
2022-08-29T14:28:04.443Z,20.20
2022-08-29T14:30:32.782Z,20.20
2022-08-29T14:33:02.344Z,20.16
2022-08-29T14:35:31.475Z,20.11
2022-08-29T14:38:02.198Z,20.16
2022-08-29T14:40:32.406Z,20.17
2022-08-29T14:43:02.221Z,20.11
2022-08-29T14:45:31.974Z,19.96
2022-08-29T14:48:01.906Z,19.94
2022-08-29T14:50:30.525Z,20.02
2022-08-29T14:52:58.915Z,19.82
2022-08-29T14:55:27.709Z,20.04
2022-08-29T14:57:56.076Z,20.03
2022-08-29T15:00:26.710Z,20.12
2022-08-29T15:02:55.268Z,20.07
2022-08-29T15:05:25.503Z,20.08
2022-08-29T15:07:53.972Z,19.93
2022-08-29T15:10:25.845Z,19.83
2022-08-29T15:12:54.483Z,19.93
2022-08-29T15:15:29.343Z,19.98
2022-08-29T15:17:58.474Z,19.93
2022-08-29T15:20:38.215Z,19.85
2022-08-29T15:23:08.210Z,19.87
2022-08-29T15:25:37.007Z,19.93
2022-08-29T15:28:05.747Z,20.01
2022-08-29T15:30:34.588Z,19.83
2022-08-29T15:33:03.477Z,19.82
2022-08-29T15:35:33.383Z,19.78
2022-08-29T15:38:01.728Z,19.55
2022-08-29T15:40:30.161Z,19.61
2022-08-29T15:42:58.798Z,19.67
2022-08-29T15:45:27.436Z,19.59
2022-08-29T15:47:55.686Z,19.61
2022-08-29T15:50:26.452Z,19.63
2022-08-29T15:52:56.826Z,19.69
2022-08-29T15:55:26.298Z,19.65
2022-08-29T15:57:54.501Z,19.66
2022-08-29T16:00:29.634Z,19.63
2022-08-29T16:03:03.674Z,19.52
2022-08-29T16:05:33.463Z,19.48
2022-08-29T16:08:03.765Z,19.40
2022-08-29T16:10:32.824Z,19.37
2022-08-29T16:13:01.751Z,19.47
2022-08-29T16:15:31.440Z,19.49
2022-08-29T16:18:00.444Z,19.47
2022-08-29T16:20:28.990Z,19.42
2022-08-29T16:22:58.009Z,19.36
2022-08-29T16:25:32.397Z,19.34
2022-08-29T16:28:01.435Z,19.30
2022-08-29T16:30:31.623Z,19.28
2022-08-29T16:33:00.174Z,19.28
2022-08-29T16:35:28.514Z,19.21
2022-08-29T16:38:02.970Z,19.14
2022-08-29T16:40:33.737Z,19.04
2022-08-29T16:43:02.857Z,19.10
2022-08-29T16:45:31.302Z,19.10
2022-08-29T16:47:59.808Z,19.13
2022-08-29T16:50:28.722Z,19.03
2022-08-29T16:52:56.973Z,19.05
2022-08-29T16:55:29.476Z,19.03
2022-08-29T16:58:17.488Z,19.03
2022-08-29T17:00:46.536Z,18.99
2022-08-29T17:03:19.468Z,18.91
2022-08-29T17:05:49.620Z,18.89
2022-08-29T17:08:17.078Z,18.80
2022-08-29T17:10:44.198Z,18.83
2022-08-29T17:13:13.359Z,18.90
2022-08-29T17:15:40.477Z,18.91
2022-08-29T17:18:09.211Z,18.93
2022-08-29T17:20:38.125Z,18.83
2022-08-29T17:23:10.127Z,18.80
2022-08-29T17:25:39.409Z,18.67
2022-08-29T17:28:17.721Z,18.71
2022-08-29T17:30:49.080Z,18.74
2022-08-29T17:33:17.919Z,18.73
2022-08-29T17:35:46.069Z,18.68
2022-08-29T17:38:15.949Z,18.68
2022-08-29T17:40:44.691Z,18.66
2022-08-29T17:43:14.152Z,18.62
2022-08-29T17:45:42.744Z,18.58
2022-08-29T17:48:12.497Z,18.50
2022-08-29T17:50:42.087Z,18.56
2022-08-29T17:53:10.561Z,18.45
2022-08-29T17:55:42.099Z,18.42
2022-08-29T17:58:10.454Z,18.37
2022-08-29T18:00:39.124Z,18.35
2022-08-29T18:03:09.869Z,18.37
2022-08-29T18:05:41.399Z,18.26
2022-08-29T18:08:09.562Z,18.21
2022-08-29T18:10:38.649Z,18.28
2022-08-29T18:13:07.164Z,18.22
2022-08-29T18:15:35.720Z,18.23
2022-08-29T18:18:05.289Z,18.25
2022-08-29T18:20:33.851Z,18.20
2022-08-29T18:23:04.580Z,18.29
2022-08-29T18:25:32.750Z,18.18
2022-08-29T18:28:01.123Z,18.13
2022-08-29T18:30:29.336Z,18.06
2022-08-29T18:32:57.567Z,18.07
2022-08-29T18:35:26.016Z,18.04
2022-08-29T18:37:54.102Z,18.04
2022-08-29T18:40:24.705Z,18.01
2022-08-29T18:42:53.469Z,18.10
2022-08-29T18:45:21.515Z,18.00
2022-08-29T18:47:49.765Z,17.94
2022-08-29T18:50:36.778Z,18.01
2022-08-29T18:53:08.607Z,17.96
2022-08-29T18:55:39.337Z,17.96
2022-08-29T18:58:08.498Z,17.96
2022-08-29T19:00:40.315Z,17.88
2022-08-29T19:03:08.780Z,17.87
2022-08-29T19:05:39.209Z,17.79
2022-08-29T19:08:10.483Z,17.80
2022-08-29T19:10:40.016Z,17.91
2022-08-29T19:13:09.288Z,17.78
2022-08-29T19:15:41.371Z,17.80
2022-08-29T19:18:11.121Z,17.60
2022-08-29T19:21:00.449Z,17.75
2022-08-29T19:23:28.685Z,17.73
2022-08-29T19:25:58.199Z,17.52
2022-08-29T19:28:26.974Z,17.62
2022-08-29T19:30:55.535Z,17.60
2022-08-29T19:33:24.789Z,17.54
2022-08-29T19:35:53.951Z,17.59
2022-08-29T19:38:23.939Z,17.56
2022-08-29T19:40:57.154Z,17.51
2022-08-29T19:43:28.402Z,17.49
2022-08-29T19:45:57.748Z,17.51
2022-08-29T19:48:28.149Z,17.46
2022-08-29T19:50:57.017Z,17.40
2022-08-29T19:53:27.185Z,17.25
2022-08-29T19:55:56.825Z,17.38
2022-08-29T19:58:31.511Z,17.11
2022-08-29T20:01:02.004Z,17.37
2022-08-29T20:03:30.238Z,17.29
2022-08-29T20:05:59.651Z,17.24
2022-08-29T20:08:29.231Z,17.17
2022-08-29T20:10:59.629Z,17.21
2022-08-29T20:13:34.873Z,17.16
2022-08-29T20:16:04.480Z,17.23
2022-08-29T20:18:33.160Z,17.17
2022-08-29T20:21:01.411Z,17.12
2022-08-29T20:23:30.415Z,17.05
2022-08-29T20:26:00.068Z,17.01
2022-08-29T20:28:30.631Z,17.03
2022-08-29T20:30:59.079Z,16.88
2022-08-29T20:33:27.668Z,16.83
2022-08-29T20:36:13.740Z,16.84
2022-08-29T20:38:42.091Z,16.77
2022-08-29T20:41:10.253Z,16.72
2022-08-29T20:43:39.845Z,16.66
2022-08-29T20:46:09.782Z,16.63
2022-08-29T20:48:38.889Z,16.60
2022-08-29T20:51:09.432Z,16.50
2022-08-29T20:53:39.123Z,16.47
2022-08-29T20:56:08.806Z,16.37
2022-08-29T20:58:36.960Z,16.40
2022-08-29T21:01:07.040Z,16.40
2022-08-29T21:03:52.893Z,16.30
2022-08-29T21:06:21.998Z,16.24
2022-08-29T21:08:50.176Z,16.29
2022-08-29T21:11:18.345Z,16.23
2022-08-29T21:13:50.050Z,16.07
2022-08-29T21:16:22.288Z,16.04
2022-08-29T21:18:52.536Z,16.06
2022-08-29T21:21:24.208Z,16.05
2022-08-29T21:23:53.559Z,16.05
2022-08-29T21:26:21.662Z,16.06
2022-08-29T21:28:49.797Z,16.09
2022-08-29T21:31:18.618Z,16.07
2022-08-29T21:33:48.802Z,16.08
2022-08-29T21:36:19.991Z,16.12
2022-08-29T21:38:49.239Z,16.16
2022-08-29T21:41:17.408Z,16.15
2022-08-29T21:43:45.606Z,16.02
2022-08-29T21:46:18.435Z,15.90
2022-08-29T21:48:48.785Z,15.71
2022-08-29T21:51:18.864Z,15.73
2022-08-29T21:53:47.519Z,15.64
2022-08-29T21:56:16.191Z,15.59
2022-08-29T21:58:46.872Z,15.55
2022-08-29T22:01:14.919Z,15.63
2022-08-29T22:03:43.263Z,15.70
2022-08-29T22:06:13.005Z,15.55
2022-08-29T22:08:41.047Z,15.54
2022-08-29T22:11:15.463Z,15.41
2022-08-29T22:13:43.958Z,15.45
2022-08-29T22:16:29.889Z,15.39
2022-08-29T22:19:01.304Z,15.23
2022-08-29T22:21:33.939Z,15.23
2022-08-29T22:24:03.530Z,15.20
2022-08-29T22:26:31.849Z,15.21
2022-08-29T22:29:00.393Z,15.18
2022-08-29T22:31:28.800Z,15.11
2022-08-29T22:33:56.935Z,15.18
2022-08-29T22:36:25.166Z,15.17
2022-08-29T22:38:56.508Z,15.05
2022-08-29T22:41:25.757Z,14.96
2022-08-29T22:44:25.463Z,14.83
2022-08-29T22:46:45.959Z,15.02
2022-08-29T22:49:14.533Z,15.02
2022-08-29T22:51:42.515Z,14.99
2022-08-29T22:54:29.558Z,14.91
2022-08-29T22:56:58.097Z,14.84
2022-08-29T22:59:26.196Z,14.79
2022-08-29T23:01:54.715Z,14.86
2022-08-29T23:04:24.167Z,14.78
2022-08-29T23:06:52.318Z,14.84
2022-08-29T23:09:22.110Z,14.83
2022-08-29T23:11:50.697Z,14.75
2022-08-29T23:14:20.551Z,14.74
2022-08-29T23:16:49.724Z,14.71
2022-08-29T23:19:18.436Z,14.69
2022-08-29T23:21:46.496Z,14.68
2022-08-29T23:24:14.765Z,14.63
2022-08-29T23:26:44.392Z,14.56
2022-08-29T23:29:12.512Z,14.54
2022-08-29T23:31:41.157Z,14.47
2022-08-29T23:34:09.735Z,14.60
2022-08-29T23:36:37.897Z,14.57
2022-08-29T23:39:06.438Z,14.42
2022-08-29T23:41:35.362Z,14.39
2022-08-29T23:44:05.747Z,14.33
2022-08-29T23:46:34.276Z,14.37
2022-08-29T23:49:02.443Z,14.34
2022-08-29T23:51:30.529Z,14.28
2022-08-29T23:53:58.923Z,14.29
2022-08-29T23:56:27.237Z,14.33
2022-08-29T23:58:56.927Z,14.18
